map of MAZ home
MAZ - Airport
Location
City:  Mayagüez, Puerto Rico, United States
Name:Eugenio Maria De Hostos Airport
ICAO:TJMZ
IATA:MAZ
FAA LID:MAZ

Details
Type:Airport (Airfield)
Use:Public/Civil, International (customs landing rights)
Latitude:18°15'20"N (18.255694)
Longitude:67°08'54"W (-67.148471)
Datum:WGS 1984
Elevation:27 ft (8 m)
Variation:12.75°W (WMM2015v2 magnetic declination)
-0.05° annual change
Runways:1
Longest:4998 × 100 ft (1523 × 30.5 m), paved

Time
Time Zone:UTC-4
Local Time:

Weather
TAF:TJMZ 041141Z 0412/0512 06007KT P6SM FEW030
FM041530 29010KT P6SM VCSH SCT025 BKN040
FM042200 06006KT P6SM FEW025 SCT090
AMD NOT SKED

Related Locations
Nearby:
Farthest:BWB: 12193 mi / 19623 km
Barrow Island, WA, AU

Find:

   beyond  
but within

Other Information
Maps:
NOTAMs:
Links:
Sources:

  
  • flag of United States
  • flag of Puerto Rico
  • flag of Mayagüez
  

Airport Diagram

Airport diagram for MAZ

Airport diagram PDF from FAA

Sectional Chart

Flight Planning
at skyvector.com

Satellite Image

Google Maps Satellite view

 

Copyright © 2004-2019 Karl L. Swartz. All rights reserved.
The Great Circle Mapper name and logo are trademarks of the Great Circle Mapper.
All other trademarks mentioned herein belong to their respective owners.
Please see credits for attibutions and further copyright information.

  Follow gcmap on Facebook Follow gcmap on Twitter GCmap on LinkedIn

hCard Microformat

Geo Microformat